sensor_id;sensor_type;location;lat;lon;timestamp;P1;durP1;ratioP1;P2;durP2;ratioP2
68475;SDS011;55464;48.266;14.188;2023-05-10T00:00:33;3.85;;;3.30;;
68475;SDS011;55464;48.266;14.188;2023-05-10T00:02:58;6.30;;;3.40;;
68475;SDS011;55464;48.266;14.188;2023-05-10T00:05:24;4.80;;;3.55;;
68475;SDS011;55464;48.266;14.188;2023-05-10T00:07:49;5.68;;;3.05;;
68475;SDS011;55464;48.266;14.188;2023-05-10T00:10:15;3.38;;;3.03;;
68475;SDS011;55464;48.266;14.188;2023-05-10T00:12:40;4.88;;;3.22;;
68475;SDS011;55464;48.266;14.188;2023-05-10T00:15:06;3.83;;;3.00;;
68475;SDS011;55464;48.266;14.188;2023-05-10T00:17:34;4.72;;;3.55;;
68475;SDS011;55464;48.266;14.188;2023-05-10T00:19:59;5.28;;;3.30;;
68475;SDS011;55464;48.266;14.188;2023-05-10T00:22:25;4.93;;;3.28;;
68475;SDS011;55464;48.266;14.188;2023-05-10T00:24:51;9.52;;;3.60;;
68475;SDS011;55464;48.266;14.188;2023-05-10T00:27:16;5.88;;;3.13;;
68475;SDS011;55464;48.266;14.188;2023-05-10T00:29:41;3.13;;;2.55;;
68475;SDS011;55464;48.266;14.188;2023-05-10T00:32:07;5.15;;;3.38;;
68475;SDS011;55464;48.266;14.188;2023-05-10T00:34:32;8.68;;;3.20;;
68475;SDS011;55464;48.266;14.188;2023-05-10T00:36:58;4.65;;;3.33;;
68475;SDS011;55464;48.266;14.188;2023-05-10T00:39:23;6.22;;;3.83;;
68475;SDS011;55464;48.266;14.188;2023-05-10T00:41:49;9.18;;;3.50;;
68475;SDS011;55464;48.266;14.188;2023-05-10T00:44:14;5.18;;;3.50;;
68475;SDS011;55464;48.266;14.188;2023-05-10T00:46:40;4.05;;;3.05;;
68475;SDS011;55464;48.266;14.188;2023-05-10T00:49:06;4.70;;;3.13;;
68475;SDS011;55464;48.266;14.188;2023-05-10T00:51:31;7.13;;;3.38;;
68475;SDS011;55464;48.266;14.188;2023-05-10T00:53:57;5.40;;;3.00;;
68475;SDS011;55464;48.266;14.188;2023-05-10T00:56:23;4.53;;;3.17;;
68475;SDS011;55464;48.266;14.188;2023-05-10T00:58:50;7.97;;;3.92;;
68475;SDS011;55464;48.266;14.188;2023-05-10T01:01:15;6.40;;;3.10;;
68475;SDS011;55464;48.266;14.188;2023-05-10T01:03:41;5.00;;;3.35;;
68475;SDS011;55464;48.266;14.188;2023-05-10T01:06:07;4.75;;;3.17;;
68475;SDS011;55464;48.266;14.188;2023-05-10T01:08:32;4.80;;;2.58;;
68475;SDS011;55464;48.266;14.188;2023-05-10T01:10:58;6.00;;;3.13;;
68475;SDS011;55464;48.266;14.188;2023-05-10T01:13:32;3.67;;;2.47;;
68475;SDS011;55464;48.266;14.188;2023-05-10T01:16:02;4.45;;;2.70;;
68475;SDS011;55464;48.266;14.188;2023-05-10T01:18:38;5.97;;;2.13;;
68475;SDS011;55464;48.266;14.188;2023-05-10T01:21:23;5.00;;;2.88;;
68475;SDS011;55464;48.266;14.188;2023-05-10T01:24:40;6.07;;;3.23;;
68475;SDS011;55464;48.266;14.188;2023-05-10T01:27:14;6.82;;;3.42;;
68475;SDS011;55464;48.266;14.188;2023-05-10T01:43:44;3.50;;;2.90;;
68475;SDS011;55464;48.266;14.188;2023-05-10T01:46:14;3.40;;;2.75;;
68475;SDS011;55464;48.266;14.188;2023-05-10T01:48:49;5.95;;;3.70;;
68475;SDS011;55464;48.266;14.188;2023-05-10T01:51:23;3.78;;;3.38;;
68475;SDS011;55464;48.266;14.188;2023-05-10T01:53:51;3.08;;;2.75;;
68475;SDS011;55464;48.266;14.188;2023-05-10T01:56:24;6.05;;;3.03;;
68475;SDS011;55464;48.266;14.188;2023-05-10T01:58:52;4.57;;;2.67;;
68475;SDS011;55464;48.266;14.188;2023-05-10T02:01:20;4.07;;;2.90;;
68475;SDS011;55464;48.266;14.188;2023-05-10T02:03:47;3.50;;;2.67;;
68475;SDS011;55464;48.266;14.188;2023-05-10T02:06:16;4.38;;;3.03;;
68475;SDS011;55464;48.266;14.188;2023-05-10T02:08:45;4.18;;;3.13;;
68475;SDS011;55464;48.266;14.188;2023-05-10T02:11:12;4.35;;;2.67;;
68475;SDS011;55464;48.266;14.188;2023-05-10T02:13:38;3.70;;;2.80;;
68475;SDS011;55464;48.266;14.188;2023-05-10T02:16:05;4.05;;;2.80;;
68475;SDS011;55464;48.266;14.188;2023-05-10T02:18:32;4.60;;;2.92;;
68475;SDS011;55464;48.266;14.188;2023-05-10T02:20:59;5.10;;;3.40;;
68475;SDS011;55464;48.266;14.188;2023-05-10T02:23:26;4.78;;;2.50;;
68475;SDS011;55464;48.266;14.188;2023-05-10T02:25:53;4.82;;;2.40;;
68475;SDS011;55464;48.266;14.188;2023-05-10T02:28:21;3.08;;;2.78;;
68475;SDS011;55464;48.266;14.188;2023-05-10T02:30:48;3.15;;;2.83;;
68475;SDS011;55464;48.266;14.188;2023-05-10T02:33:14;3.63;;;2.58;;
68475;SDS011;55464;48.266;14.188;2023-05-10T02:35:40;3.35;;;2.40;;
68475;SDS011;55464;48.266;14.188;2023-05-10T02:38:06;3.38;;;2.30;;
68475;SDS011;55464;48.266;14.188;2023-05-10T02:40:33;4.75;;;2.47;;
68475;SDS011;55464;48.266;14.188;2023-05-10T02:43:01;3.00;;;2.80;;
68475;SDS011;55464;48.266;14.188;2023-05-10T02:45:28;3.10;;;2.22;;
68475;SDS011;55464;48.266;14.188;2023-05-10T02:47:56;3.35;;;2.72;;
68475;SDS011;55464;48.266;14.188;2023-05-10T02:50:21;2.97;;;2.67;;
68475;SDS011;55464;48.266;14.188;2023-05-10T02:52:51;4.22;;;2.70;;
68475;SDS011;55464;48.266;14.188;2023-05-10T02:55:19;4.88;;;3.30;;
68475;SDS011;55464;48.266;14.188;2023-05-10T02:57:54;3.92;;;2.80;;
68475;SDS011;55464;48.266;14.188;2023-05-10T03:00:25;3.92;;;3.28;;
68475;SDS011;55464;48.266;14.188;2023-05-10T03:02:50;3.08;;;2.80;;
68475;SDS011;55464;48.266;14.188;2023-05-10T03:05:16;3.28;;;2.85;;
68475;SDS011;55464;48.266;14.188;2023-05-10T03:07:42;4.47;;;3.03;;
68475;SDS011;55464;48.266;14.188;2023-05-10T03:10:08;2.50;;;2.17;;
68475;SDS011;55464;48.266;14.188;2023-05-10T03:18:09;3.80;;;3.28;;
68475;SDS011;55464;48.266;14.188;2023-05-10T03:25:39;4.80;;;2.97;;
68475;SDS011;55464;48.266;14.188;2023-05-10T03:28:06;4.13;;;3.15;;
68475;SDS011;55464;48.266;14.188;2023-05-10T03:30:32;4.57;;;3.45;;
68475;SDS011;55464;48.266;14.188;2023-05-10T03:33:03;3.88;;;2.88;;
68475;SDS011;55464;48.266;14.188;2023-05-10T03:35:30;3.50;;;3.10;;
68475;SDS011;55464;48.266;14.188;2023-05-10T03:37:55;4.65;;;3.25;;
68475;SDS011;55464;48.266;14.188;2023-05-10T03:40:21;3.90;;;2.92;;
68475;SDS011;55464;48.266;14.188;2023-05-10T03:42:48;5.07;;;3.47;;
68475;SDS011;55464;48.266;14.188;2023-05-10T03:45:13;6.20;;;3.40;;
68475;SDS011;55464;48.266;14.188;2023-05-10T03:47:38;5.75;;;3.05;;
68475;SDS011;55464;48.266;14.188;2023-05-10T03:50:04;4.97;;;3.20;;
68475;SDS011;55464;48.266;14.188;2023-05-10T03:52:30;3.83;;;3.10;;
68475;SDS011;55464;48.266;14.188;2023-05-10T03:54:55;4.28;;;3.17;;
68475;SDS011;55464;48.266;14.188;2023-05-10T03:57:21;3.97;;;3.40;;
68475;SDS011;55464;48.266;14.188;2023-05-10T03:59:46;6.70;;;3.63;;
68475;SDS011;55464;48.266;14.188;2023-05-10T04:02:12;7.60;;;3.20;;
68475;SDS011;55464;48.266;14.188;2023-05-10T04:04:37;3.40;;;3.10;;
68475;SDS011;55464;48.266;14.188;2023-05-10T04:07:02;3.92;;;2.85;;
68475;SDS011;55464;48.266;14.188;2023-05-10T04:09:28;5.03;;;3.47;;
68475;SDS011;55464;48.266;14.188;2023-05-10T04:11:53;3.67;;;3.03;;
68475;SDS011;55464;48.266;14.188;2023-05-10T04:14:19;5.15;;;3.17;;
68475;SDS011;55464;48.266;14.188;2023-05-10T04:16:44;6.53;;;3.40;;
68475;SDS011;55464;48.266;14.188;2023-05-10T04:19:09;4.63;;;2.78;;
68475;SDS011;55464;48.266;14.188;2023-05-10T04:21:35;3.88;;;3.33;;
68475;SDS011;55464;48.266;14.188;2023-05-10T04:24:01;4.18;;;3.42;;
68475;SDS011;55464;48.266;14.188;2023-05-10T04:26:26;7.30;;;3.10;;
68475;SDS011;55464;48.266;14.188;2023-05-10T04:28:52;5.28;;;3.42;;
68475;SDS011;55464;48.266;14.188;2023-05-10T04:31:18;6.05;;;3.38;;
68475;SDS011;55464;48.266;14.188;2023-05-10T04:33:43;3.97;;;3.17;;
68475;SDS011;55464;48.266;14.188;2023-05-10T04:36:08;4.18;;;3.25;;
68475;SDS011;55464;48.266;14.188;2023-05-10T04:38:34;5.50;;;3.22;;
68475;SDS011;55464;48.266;14.188;2023-05-10T04:41:06;4.72;;;3.22;;
68475;SDS011;55464;48.266;14.188;2023-05-10T04:43:33;3.90;;;2.88;;
68475;SDS011;55464;48.266;14.188;2023-05-10T04:45:59;4.13;;;3.17;;
68475;SDS011;55464;48.266;14.188;2023-05-10T04:48:24;3.90;;;3.47;;
68475;SDS011;55464;48.266;14.188;2023-05-10T04:50:50;5.07;;;3.05;;
68475;SDS011;55464;48.266;14.188;2023-05-10T04:53:15;4.50;;;3.50;;
68475;SDS011;55464;48.266;14.188;2023-05-10T04:55:41;3.75;;;3.30;;
68475;SDS011;55464;48.266;14.188;2023-05-10T04:58:06;5.43;;;3.25;;
68475;SDS011;55464;48.266;14.188;2023-05-10T05:00:32;5.75;;;3.58;;
68475;SDS011;55464;48.266;14.188;2023-05-10T05:02:58;3.35;;;2.85;;
68475;SDS011;55464;48.266;14.188;2023-05-10T05:05:24;6.03;;;3.78;;
68475;SDS011;55464;48.266;14.188;2023-05-10T05:07:49;4.95;;;3.60;;
68475;SDS011;55464;48.266;14.188;2023-05-10T05:10:15;6.55;;;3.28;;
68475;SDS011;55464;48.266;14.188;2023-05-10T05:12:41;4.13;;;3.38;;
68475;SDS011;55464;48.266;14.188;2023-05-10T05:15:06;4.60;;;3.17;;
68475;SDS011;55464;48.266;14.188;2023-05-10T05:17:34;3.92;;;3.05;;
68475;SDS011;55464;48.266;14.188;2023-05-10T05:19:59;8.02;;;3.33;;
68475;SDS011;55464;48.266;14.188;2023-05-10T05:22:24;6.95;;;3.75;;
68475;SDS011;55464;48.266;14.188;2023-05-10T05:24:56;4.10;;;3.58;;
68475;SDS011;55464;48.266;14.188;2023-05-10T05:27:23;4.07;;;3.30;;
68475;SDS011;55464;48.266;14.188;2023-05-10T05:29:52;4.07;;;3.35;;
68475;SDS011;55464;48.266;14.188;2023-05-10T05:32:18;4.63;;;3.47;;
68475;SDS011;55464;48.266;14.188;2023-05-10T05:34:46;4.10;;;3.55;;
68475;SDS011;55464;48.266;14.188;2023-05-10T05:37:13;5.25;;;3.65;;
68475;SDS011;55464;48.266;14.188;2023-05-10T05:39:47;3.95;;;3.42;;
68475;SDS011;55464;48.266;14.188;2023-05-10T05:42:13;4.32;;;3.78;;
68475;SDS011;55464;48.266;14.188;2023-05-10T05:44:39;6.72;;;4.05;;
68475;SDS011;55464;48.266;14.188;2023-05-10T05:47:05;5.35;;;4.00;;
68475;SDS011;55464;48.266;14.188;2023-05-10T05:49:31;4.63;;;3.75;;
68475;SDS011;55464;48.266;14.188;2023-05-10T05:52:00;6.47;;;3.38;;
68475;SDS011;55464;48.266;14.188;2023-05-10T05:54:26;5.10;;;3.47;;
68475;SDS011;55464;48.266;14.188;2023-05-10T05:56:58;8.80;;;4.43;;
68475;SDS011;55464;48.266;14.188;2023-05-10T05:59:25;9.70;;;4.75;;
68475;SDS011;55464;48.266;14.188;2023-05-10T06:01:50;9.65;;;4.38;;
68475;SDS011;55464;48.266;14.188;2023-05-10T06:04:16;13.07;;;5.82;;
68475;SDS011;55464;48.266;14.188;2023-05-10T06:06:41;8.90;;;5.35;;
68475;SDS011;55464;48.266;14.188;2023-05-10T06:09:07;13.75;;;6.88;;
68475;SDS011;55464;48.266;14.188;2023-05-10T06:11:33;14.82;;;7.65;;
68475;SDS011;55464;48.266;14.188;2023-05-10T06:13:59;11.40;;;5.30;;
68475;SDS011;55464;48.266;14.188;2023-05-10T06:16:25;11.35;;;5.32;;
68475;SDS011;55464;48.266;14.188;2023-05-10T06:18:51;8.18;;;4.47;;
68475;SDS011;55464;48.266;14.188;2023-05-10T06:21:16;8.82;;;5.13;;
68475;SDS011;55464;48.266;14.188;2023-05-10T06:23:41;8.25;;;4.88;;
68475;SDS011;55464;48.266;14.188;2023-05-10T06:26:07;9.93;;;5.15;;
68475;SDS011;55464;48.266;14.188;2023-05-10T06:28:32;10.20;;;5.07;;
68475;SDS011;55464;48.266;14.188;2023-05-10T06:30:58;8.05;;;5.25;;
68475;SDS011;55464;48.266;14.188;2023-05-10T06:33:24;9.00;;;4.43;;
68475;SDS011;55464;48.266;14.188;2023-05-10T06:35:49;6.50;;;4.40;;
68475;SDS011;55464;48.266;14.188;2023-05-10T06:38:15;9.55;;;4.57;;
68475;SDS011;55464;48.266;14.188;2023-05-10T06:40:41;9.45;;;4.57;;
68475;SDS011;55464;48.266;14.188;2023-05-10T06:43:07;5.90;;;4.63;;
68475;SDS011;55464;48.266;14.188;2023-05-10T06:45:32;9.10;;;4.43;;
68475;SDS011;55464;48.266;14.188;2023-05-10T06:47:58;9.80;;;4.63;;
68475;SDS011;55464;48.266;14.188;2023-05-10T06:50:23;7.68;;;4.68;;
68475;SDS011;55464;48.266;14.188;2023-05-10T06:52:48;7.20;;;4.68;;
68475;SDS011;55464;48.266;14.188;2023-05-10T06:55:14;7.47;;;5.25;;
68475;SDS011;55464;48.266;14.188;2023-05-10T06:57:39;9.60;;;5.47;;
68475;SDS011;55464;48.266;14.188;2023-05-10T07:00:05;8.68;;;5.50;;
68475;SDS011;55464;48.266;14.188;2023-05-10T07:02:31;6.93;;;5.63;;
68475;SDS011;55464;48.266;14.188;2023-05-10T07:04:56;6.78;;;5.70;;
68475;SDS011;55464;48.266;14.188;2023-05-10T07:07:22;7.45;;;5.60;;
68475;SDS011;55464;48.266;14.188;2023-05-10T07:09:48;6.97;;;5.57;;
68475;SDS011;55464;48.266;14.188;2023-05-10T07:12:14;9.15;;;5.18;;
68475;SDS011;55464;48.266;14.188;2023-05-10T07:14:40;9.82;;;5.25;;
68475;SDS011;55464;48.266;14.188;2023-05-10T07:17:06;10.48;;;5.88;;
68475;SDS011;55464;48.266;14.188;2023-05-10T07:19:31;9.35;;;5.55;;
68475;SDS011;55464;48.266;14.188;2023-05-10T07:21:57;10.18;;;6.45;;
68475;SDS011;55464;48.266;14.188;2023-05-10T07:24:23;12.45;;;6.20;;
68475;SDS011;55464;48.266;14.188;2023-05-10T07:26:49;8.90;;;6.25;;
68475;SDS011;55464;48.266;14.188;2023-05-10T07:29:14;8.73;;;6.30;;
68475;SDS011;55464;48.266;14.188;2023-05-10T07:31:40;9.35;;;5.70;;
68475;SDS011;55464;48.266;14.188;2023-05-10T07:34:07;8.50;;;6.28;;
68475;SDS011;55464;48.266;14.188;2023-05-10T07:36:33;10.98;;;6.00;;
68475;SDS011;55464;48.266;14.188;2023-05-10T07:38:59;10.15;;;5.63;;
68475;SDS011;55464;48.266;14.188;2023-05-10T07:41:24;11.93;;;6.57;;
68475;SDS011;55464;48.266;14.188;2023-05-10T07:43:50;10.27;;;6.22;;
68475;SDS011;55464;48.266;14.188;2023-05-10T07:46:15;6.82;;;5.30;;
68475;SDS011;55464;48.266;14.188;2023-05-10T07:48:41;7.80;;;5.63;;
68475;SDS011;55464;48.266;14.188;2023-05-10T07:51:06;7.07;;;5.25;;
68475;SDS011;55464;48.266;14.188;2023-05-10T07:53:34;6.20;;;4.93;;
68475;SDS011;55464;48.266;14.188;2023-05-10T07:56:19;6.85;;;5.15;;
68475;SDS011;55464;48.266;14.188;2023-05-10T07:58:54;8.88;;;5.15;;
68475;SDS011;55464;48.266;14.188;2023-05-10T08:01:20;13.00;;;5.05;;
68475;SDS011;55464;48.266;14.188;2023-05-10T08:03:46;7.93;;;4.80;;
68475;SDS011;55464;48.266;14.188;2023-05-10T08:06:12;9.65;;;5.20;;
68475;SDS011;55464;48.266;14.188;2023-05-10T08:08:38;7.32;;;4.88;;
68475;SDS011;55464;48.266;14.188;2023-05-10T08:11:03;8.77;;;4.85;;
68475;SDS011;55464;48.266;14.188;2023-05-10T08:13:29;10.98;;;6.43;;
68475;SDS011;55464;48.266;14.188;2023-05-10T08:15:54;8.15;;;5.63;;
68475;SDS011;55464;48.266;14.188;2023-05-10T08:18:20;14.40;;;5.82;;
68475;SDS011;55464;48.266;14.188;2023-05-10T08:20:45;11.40;;;6.50;;
68475;SDS011;55464;48.266;14.188;2023-05-10T08:23:14;13.38;;;7.50;;
68475;SDS011;55464;48.266;14.188;2023-05-10T08:25:40;11.23;;;7.07;;
68475;SDS011;55464;48.266;14.188;2023-05-10T08:28:06;13.52;;;6.55;;
68475;SDS011;55464;48.266;14.188;2023-05-10T08:30:31;13.93;;;7.47;;
68475;SDS011;55464;48.266;14.188;2023-05-10T08:32:56;12.05;;;7.63;;
68475;SDS011;55464;48.266;14.188;2023-05-10T08:35:22;15.43;;;7.43;;
68475;SDS011;55464;48.266;14.188;2023-05-10T08:37:47;10.98;;;7.32;;
68475;SDS011;55464;48.266;14.188;2023-05-10T08:40:13;19.58;;;7.95;;
68475;SDS011;55464;48.266;14.188;2023-05-10T08:42:40;15.57;;;7.30;;
68475;SDS011;55464;48.266;14.188;2023-05-10T08:45:10;16.77;;;8.32;;
68475;SDS011;55464;48.266;14.188;2023-05-10T08:47:36;16.83;;;7.55;;
68475;SDS011;55464;48.266;14.188;2023-05-10T08:50:03;12.52;;;7.28;;
68475;SDS011;55464;48.266;14.188;2023-05-10T08:52:29;16.92;;;8.07;;
68475;SDS011;55464;48.266;14.188;2023-05-10T08:54:55;15.48;;;7.70;;
68475;SDS011;55464;48.266;14.188;2023-05-10T08:57:20;15.45;;;8.07;;
68475;SDS011;55464;48.266;14.188;2023-05-10T08:59:46;13.80;;;7.22;;
68475;SDS011;55464;48.266;14.188;2023-05-10T09:02:12;11.57;;;6.93;;
68475;SDS011;55464;48.266;14.188;2023-05-10T09:04:38;10.38;;;7.57;;
68475;SDS011;55464;48.266;14.188;2023-05-10T09:07:04;8.48;;;6.25;;
68475;SDS011;55464;48.266;14.188;2023-05-10T09:09:29;8.35;;;6.45;;
68475;SDS011;55464;48.266;14.188;2023-05-10T09:11:56;11.30;;;5.57;;
68475;SDS011;55464;48.266;14.188;2023-05-10T09:14:22;7.75;;;5.68;;
68475;SDS011;55464;48.266;14.188;2023-05-10T09:16:49;10.10;;;5.65;;
68475;SDS011;55464;48.266;14.188;2023-05-10T09:19:15;7.57;;;4.65;;
68475;SDS011;55464;48.266;14.188;2023-05-10T09:21:40;8.93;;;5.75;;
68475;SDS011;55464;48.266;14.188;2023-05-10T09:24:06;8.45;;;5.13;;
68475;SDS011;55464;48.266;14.188;2023-05-10T09:26:33;8.65;;;5.00;;
68475;SDS011;55464;48.266;14.188;2023-05-10T09:29:00;9.30;;;6.38;;
68475;SDS011;55464;48.266;14.188;2023-05-10T09:31:43;9.13;;;6.18;;
68475;SDS011;55464;48.266;14.188;2023-05-10T09:34:16;10.98;;;8.23;;
68475;SDS011;55464;48.266;14.188;2023-05-10T09:36:56;10.35;;;7.47;;
68475;SDS011;55464;48.266;14.188;2023-05-10T09:39:43;15.90;;;7.90;;
68475;SDS011;55464;48.266;14.188;2023-05-10T09:42:09;11.90;;;6.80;;
68475;SDS011;55464;48.266;14.188;2023-05-10T09:44:35;11.32;;;6.13;;
68475;SDS011;55464;48.266;14.188;2023-05-10T09:47:01;10.73;;;7.43;;
68475;SDS011;55464;48.266;14.188;2023-05-10T09:49:27;20.13;;;10.13;;
68475;SDS011;55464;48.266;14.188;2023-05-10T09:52:03;17.05;;;8.32;;
68475;SDS011;55464;48.266;14.188;2023-05-10T09:54:30;17.98;;;10.48;;
68475;SDS011;55464;48.266;14.188;2023-05-10T09:56:56;18.45;;;10.27;;
68475;SDS011;55464;48.266;14.188;2023-05-10T09:59:21;23.65;;;13.63;;
68475;SDS011;55464;48.266;14.188;2023-05-10T10:01:51;20.83;;;12.35;;
68475;SDS011;55464;48.266;14.188;2023-05-10T10:04:17;21.10;;;13.63;;
68475;SDS011;55464;48.266;14.188;2023-05-10T10:06:44;25.42;;;16.38;;
68475;SDS011;55464;48.266;14.188;2023-05-10T10:09:10;26.20;;;17.45;;
68475;SDS011;55464;48.266;14.188;2023-05-10T10:11:36;26.73;;;16.30;;
68475;SDS011;55464;48.266;14.188;2023-05-10T10:14:02;24.95;;;15.40;;
68475;SDS011;55464;48.266;14.188;2023-05-10T10:16:29;29.80;;;18.42;;
68475;SDS011;55464;48.266;14.188;2023-05-10T10:18:55;27.95;;;17.15;;
68475;SDS011;55464;48.266;14.188;2023-05-10T10:21:21;36.42;;;19.85;;
68475;SDS011;55464;48.266;14.188;2023-05-10T10:23:47;34.95;;;19.88;;
68475;SDS011;55464;48.266;14.188;2023-05-10T10:26:13;26.13;;;17.42;;
68475;SDS011;55464;48.266;14.188;2023-05-10T10:31:34;26.30;;;17.35;;
68475;SDS011;55464;48.266;14.188;2023-05-10T10:34:08;29.70;;;18.45;;
68475;SDS011;55464;48.266;14.188;2023-05-10T10:36:43;30.35;;;19.83;;
68475;SDS011;55464;48.266;14.188;2023-05-10T10:39:11;27.65;;;17.65;;
68475;SDS011;55464;48.266;14.188;2023-05-10T10:41:38;30.67;;;17.88;;
68475;SDS011;55464;48.266;14.188;2023-05-10T10:54:51;32.00;;;19.23;;
68475;SDS011;55464;48.266;14.188;2023-05-10T10:57:24;31.77;;;21.20;;
68475;SDS011;55464;48.266;14.188;2023-05-10T10:59:51;34.65;;;21.33;;
68475;SDS011;55464;48.266;14.188;2023-05-10T11:02:42;30.98;;;20.65;;
68475;SDS011;55464;48.266;14.188;2023-05-10T11:08:02;39.75;;;22.88;;
68475;SDS011;55464;48.266;14.188;2023-05-10T11:10:32;35.35;;;20.95;;
68475;SDS011;55464;48.266;14.188;2023-05-10T11:15:39;26.38;;;17.52;;
68475;SDS011;55464;48.266;14.188;2023-05-10T11:20:51;28.25;;;18.52;;
68475;SDS011;55464;48.266;14.188;2023-05-10T11:23:20;20.63;;;15.25;;
68475;SDS011;55464;48.266;14.188;2023-05-10T11:25:46;27.23;;;17.35;;
68475;SDS011;55464;48.266;14.188;2023-05-10T11:28:13;28.73;;;18.95;;
68475;SDS011;55464;48.266;14.188;2023-05-10T11:30:39;39.10;;;27.05;;
68475;SDS011;55464;48.266;14.188;2023-05-10T11:33:06;35.78;;;23.25;;
68475;SDS011;55464;48.266;14.188;2023-05-10T11:35:38;36.95;;;23.48;;
68475;SDS011;55464;48.266;14.188;2023-05-10T11:38:05;36.80;;;25.35;;
68475;SDS011;55464;48.266;14.188;2023-05-10T11:40:31;34.70;;;25.65;;
68475;SDS011;55464;48.266;14.188;2023-05-10T11:42:57;34.13;;;24.20;;
68475;SDS011;55464;48.266;14.188;2023-05-10T11:45:23;32.08;;;22.05;;
68475;SDS011;55464;48.266;14.188;2023-05-10T11:47:49;27.33;;;19.23;;
68475;SDS011;55464;48.266;14.188;2023-05-10T11:50:15;21.90;;;15.73;;
68475;SDS011;55464;48.266;14.188;2023-05-10T11:52:40;21.55;;;16.58;;
68475;SDS011;55464;48.266;14.188;2023-05-10T11:55:06;20.17;;;15.48;;
68475;SDS011;55464;48.266;14.188;2023-05-10T11:57:31;18.98;;;13.40;;
68475;SDS011;55464;48.266;14.188;2023-05-10T11:59:57;14.80;;;10.73;;
68475;SDS011;55464;48.266;14.188;2023-05-10T12:02:23;10.52;;;7.45;;
68475;SDS011;55464;48.266;14.188;2023-05-10T12:04:49;8.43;;;6.47;;
68475;SDS011;55464;48.266;14.188;2023-05-10T12:07:16;7.93;;;5.95;;
68475;SDS011;55464;48.266;14.188;2023-05-10T12:09:48;6.65;;;5.60;;
68475;SDS011;55464;48.266;14.188;2023-05-10T12:12:40;6.25;;;5.65;;
68475;SDS011;55464;48.266;14.188;2023-05-10T12:15:11;8.00;;;6.85;;
68475;SDS011;55464;48.266;14.188;2023-05-10T12:17:46;6.97;;;5.95;;
68475;SDS011;55464;48.266;14.188;2023-05-10T12:20:22;7.65;;;6.18;;
68475;SDS011;55464;48.266;14.188;2023-05-10T12:25:14;6.30;;;5.68;;
68475;SDS011;55464;48.266;14.188;2023-05-10T12:27:40;6.95;;;5.97;;
68475;SDS011;55464;48.266;14.188;2023-05-10T12:30:06;6.32;;;5.60;;
68475;SDS011;55464;48.266;14.188;2023-05-10T12:32:41;8.00;;;6.20;;
68475;SDS011;55464;48.266;14.188;2023-05-10T12:35:07;7.07;;;5.30;;
68475;SDS011;55464;48.266;14.188;2023-05-10T12:37:33;6.65;;;5.75;;
68475;SDS011;55464;48.266;14.188;2023-05-10T12:40:07;6.47;;;5.57;;
68475;SDS011;55464;48.266;14.188;2023-05-10T12:42:33;10.10;;;6.13;;
68475;SDS011;55464;48.266;14.188;2023-05-10T12:45:00;7.95;;;6.38;;
68475;SDS011;55464;48.266;14.188;2023-05-10T12:47:26;9.82;;;6.38;;
68475;SDS011;55464;48.266;14.188;2023-05-10T12:49:51;7.38;;;6.05;;
68475;SDS011;55464;48.266;14.188;2023-05-10T12:52:17;7.53;;;6.35;;
68475;SDS011;55464;48.266;14.188;2023-05-10T12:54:43;7.00;;;6.20;;
68475;SDS011;55464;48.266;14.188;2023-05-10T12:57:09;9.50;;;7.07;;
68475;SDS011;55464;48.266;14.188;2023-05-10T12:59:34;8.50;;;6.72;;
68475;SDS011;55464;48.266;14.188;2023-05-10T13:01:59;10.73;;;6.88;;
68475;SDS011;55464;48.266;14.188;2023-05-10T13:04:25;11.80;;;7.18;;
68475;SDS011;55464;48.266;14.188;2023-05-10T13:06:50;8.30;;;6.60;;
68475;SDS011;55464;48.266;14.188;2023-05-10T13:09:16;10.57;;;6.82;;
68475;SDS011;55464;48.266;14.188;2023-05-10T13:11:42;8.63;;;6.65;;
68475;SDS011;55464;48.266;14.188;2023-05-10T13:14:07;7.25;;;6.55;;
68475;SDS011;55464;48.266;14.188;2023-05-10T13:16:32;10.77;;;7.10;;
68475;SDS011;55464;48.266;14.188;2023-05-10T13:18:58;8.63;;;6.88;;
68475;SDS011;55464;48.266;14.188;2023-05-10T13:21:23;9.30;;;7.55;;
68475;SDS011;55464;48.266;14.188;2023-05-10T13:23:50;9.82;;;6.55;;
68475;SDS011;55464;48.266;14.188;2023-05-10T13:26:15;9.65;;;6.38;;
68475;SDS011;55464;48.266;14.188;2023-05-10T13:28:41;9.43;;;6.72;;
68475;SDS011;55464;48.266;14.188;2023-05-10T13:31:06;12.82;;;7.43;;
68475;SDS011;55464;48.266;14.188;2023-05-10T13:33:32;9.52;;;7.15;;
68475;SDS011;55464;48.266;14.188;2023-05-10T13:35:57;9.10;;;6.90;;
68475;SDS011;55464;48.266;14.188;2023-05-10T13:38:23;9.20;;;7.10;;
68475;SDS011;55464;48.266;14.188;2023-05-10T13:40:48;9.38;;;5.95;;
68475;SDS011;55464;48.266;14.188;2023-05-10T13:43:17;9.32;;;6.72;;
68475;SDS011;55464;48.266;14.188;2023-05-10T13:45:43;8.95;;;7.13;;
68475;SDS011;55464;48.266;14.188;2023-05-10T13:48:08;8.75;;;6.43;;
68475;SDS011;55464;48.266;14.188;2023-05-10T13:50:33;9.82;;;6.57;;
68475;SDS011;55464;48.266;14.188;2023-05-10T13:52:59;10.23;;;7.03;;
68475;SDS011;55464;48.266;14.188;2023-05-10T13:55:24;8.45;;;6.00;;
68475;SDS011;55464;48.266;14.188;2023-05-10T13:57:49;8.70;;;6.47;;
68475;SDS011;55464;48.266;14.188;2023-05-10T14:00:15;6.72;;;5.70;;
68475;SDS011;55464;48.266;14.188;2023-05-10T14:02:41;14.05;;;5.78;;
68475;SDS011;55464;48.266;14.188;2023-05-10T14:05:07;7.28;;;6.30;;
68475;SDS011;55464;48.266;14.188;2023-05-10T14:07:32;7.15;;;5.85;;
68475;SDS011;55464;48.266;14.188;2023-05-10T14:09:58;7.05;;;5.93;;
68475;SDS011;55464;48.266;14.188;2023-05-10T14:12:23;6.82;;;6.13;;
68475;SDS011;55464;48.266;14.188;2023-05-10T14:14:49;8.27;;;5.88;;
68475;SDS011;55464;48.266;14.188;2023-05-10T14:17:14;7.53;;;6.63;;
68475;SDS011;55464;48.266;14.188;2023-05-10T14:19:40;7.90;;;5.90;;
68475;SDS011;55464;48.266;14.188;2023-05-10T14:22:08;6.78;;;5.95;;
68475;SDS011;55464;48.266;14.188;2023-05-10T14:24:34;6.90;;;5.90;;
68475;SDS011;55464;48.266;14.188;2023-05-10T14:26:59;8.23;;;6.30;;
68475;SDS011;55464;48.266;14.188;2023-05-10T14:29:25;7.93;;;6.65;;
68475;SDS011;55464;48.266;14.188;2023-05-10T14:31:51;5.82;;;5.28;;
68475;SDS011;55464;48.266;14.188;2023-05-10T14:34:16;7.25;;;6.35;;
68475;SDS011;55464;48.266;14.188;2023-05-10T14:36:41;7.20;;;6.00;;
68475;SDS011;55464;48.266;14.188;2023-05-10T14:39:07;8.52;;;6.60;;
68475;SDS011;55464;48.266;14.188;2023-05-10T14:41:34;7.10;;;6.38;;
68475;SDS011;55464;48.266;14.188;2023-05-10T14:44:00;6.85;;;6.15;;
68475;SDS011;55464;48.266;14.188;2023-05-10T14:46:26;8.73;;;6.60;;
68475;SDS011;55464;48.266;14.188;2023-05-10T14:48:52;7.88;;;5.88;;
68475;SDS011;55464;48.266;14.188;2023-05-10T14:51:17;7.65;;;6.78;;
68475;SDS011;55464;48.266;14.188;2023-05-10T14:53:46;6.93;;;5.90;;
68475;SDS011;55464;48.266;14.188;2023-05-10T14:56:12;8.32;;;5.95;;
68475;SDS011;55464;48.266;14.188;2023-05-10T14:58:37;7.35;;;5.45;;
68475;SDS011;55464;48.266;14.188;2023-05-10T15:01:03;6.85;;;5.63;;
68475;SDS011;55464;48.266;14.188;2023-05-10T15:03:28;10.10;;;6.90;;
68475;SDS011;55464;48.266;14.188;2023-05-10T15:05:54;7.13;;;6.05;;
68475;SDS011;55464;48.266;14.188;2023-05-10T15:08:21;5.28;;;4.75;;
68475;SDS011;55464;48.266;14.188;2023-05-10T15:10:46;6.22;;;4.70;;
68475;SDS011;55464;48.266;14.188;2023-05-10T15:13:11;6.32;;;4.93;;
68475;SDS011;55464;48.266;14.188;2023-05-10T15:15:37;8.07;;;5.30;;